Time;durP1;ratioP1;P1;durP2;ratioP2;P2;SDS_P1;SDS_P2;PMS_P1;PMS_P2;Temp;Humidity;BMP_temperature;BMP_pressure;BME280_temperature;BME280_humidity;BME280_pressure;Samples;Min_cycle;Max_cycle;Signal;HPM_P1;HPM_P2
2021/10/22 00:01:24;;;;;;;;;;;10.50;91.50;;;;;;4361731;32;43619;-77
2021/10/22 00:03:51;;;;;;;;;;;10.50;91.50;;;;;;4362595;32;42923;-77
2021/10/22 00:06:18;;;;;;;;;;;10.50;91.50;;;;;;4362874;32;43656;-77
2021/10/22 00:08:45;;;;;;;;;;;10.50;91.50;;;;;;4362894;32;45803;-77
2021/10/22 00:11:13;;;;;;;;;;;10.40;91.50;;;;;;4361872;32;42641;-77
2021/10/22 00:13:40;;;;;;;;;;;10.40;91.50;;;;;;4362889;32;43533;-77
2021/10/22 00:16:07;;;;;;;;;;;10.40;91.50;;;;;;4362889;32;45104;-77
2021/10/22 00:18:34;;;;;;;;;;;10.40;91.50;;;;;;4361331;32;44224;-76
2021/10/22 00:21:01;;;;;;;;;;;10.40;91.50;;;;;;4362726;32;43906;-76
2021/10/22 00:23:28;;;;;;;;;;;10.40;91.50;;;;;;4362308;32;42829;-76
2021/10/22 00:25:56;;;;;;;;;;;10.40;91.50;;;;;;4362804;32;44154;-76
2021/10/22 00:28:23;;;;;;;;;;;10.40;91.50;;;;;;4361272;32;44509;-76
2021/10/22 00:30:50;;;;;;;;;;;10.30;91.50;;;;;;4362408;32;42922;-77
2021/10/22 00:33:18;;;;;;;;;;;10.30;91.50;;;;;;4361610;32;43159;-76
2021/10/22 00:35:45;;;;;;;;;;;10.30;91.90;;;;;;4361114;32;43858;-76
2021/10/22 00:38:12;;;;;;;;;;;10.30;91.50;;;;;;4361110;32;42935;-76
2021/10/22 00:40:39;;;;;;;;;;;10.30;91.50;;;;;;4361507;32;43598;-76
2021/10/22 00:43:06;;;;;;;;;;;10.30;91.50;;;;;;4362435;32;42019;-77
2021/10/22 00:45:33;;;;;;;;;;;10.30;91.50;;;;;;4360950;32;43754;-76
2021/10/22 00:48:00;;;;;;;;;;;10.30;91.50;;;;;;4362370;32;42583;-76
2021/10/22 00:50:27;;;;;;;;;;;10.30;91.40;;;;;;4361414;32;43018;-76
2021/10/22 00:52:55;;;;;;;;;;;10.30;91.50;;;;;;4361215;32;44359;-76
2021/10/22 00:55:22;;;;;;;;;;;10.30;91.40;;;;;;4360964;32;43161;-76
2021/10/22 00:57:49;;;;;;;;;;;10.20;91.40;;;;;;4360849;32;45054;-77
2021/10/22 01:00:17;;;;;;;;;;;10.20;91.30;;;;;;4361368;32;43871;-76
2021/10/22 01:02:44;;;;;;;;;;;10.20;91.30;;;;;;4361125;32;43965;-76
2021/10/22 01:05:14;;;;;;;;;;;10.20;91.30;;;;;;4361134;32;44875;-77
2021/10/22 01:07:42;;;;;;;;;;;10.10;91.30;;;;;;4362085;32;44222;-76
2021/10/22 01:10:11;;;;;;;;;;;10.20;91.40;;;;;;4361641;32;43104;-76
2021/10/22 01:12:39;;;;;;;;;;;10.20;91.40;;;;;;4360327;32;43873;-76
2021/10/22 01:15:07;;;;;;;;;;;10.10;91.40;;;;;;4362009;32;43599;-76
2021/10/22 01:17:37;;;;;;;;;;;10.10;91.40;;;;;;4360533;32;43187;-76
2021/10/22 01:20:05;;;;;;;;;;;10.10;91.40;;;;;;4362011;32;43759;-76
2021/10/22 01:22:32;;;;;;;;;;;10.10;91.40;;;;;;4361569;32;42878;-77
2021/10/22 01:24:59;;;;;;;;;;;10.00;91.40;;;;;;4361594;32;43618;-77
2021/10/22 01:27:26;;;;;;;;;;;10.00;91.50;;;;;;4361910;32;44888;-76
2021/10/22 01:29:54;;;;;;;;;;;10.00;91.60;;;;;;4361756;32;43096;-76
2021/10/22 01:32:22;;;;;;;;;;;10.00;91.60;;;;;;4360747;32;42828;-76
2021/10/22 01:34:49;;;;;;;;;;;10.00;91.60;;;;;;4360712;32;42677;-76
2021/10/22 01:37:16;;;;;;;;;;;10.00;91.60;;;;;;4360641;32;43508;-76
2021/10/22 01:39:43;;;;;;;;;;;10.00;91.50;;;;;;4360073;32;44270;-76
2021/10/22 01:42:12;;;;;;;;;;;9.90;91.40;;;;;;4361774;32;43036;-76
2021/10/22 01:44:39;;;;;;;;;;;9.90;91.40;;;;;;4361205;32;42553;-77
2021/10/22 01:47:06;;;;;;;;;;;9.90;91.40;;;;;;4360631;32;43695;-76
2021/10/22 01:49:33;;;;;;;;;;;9.90;91.40;;;;;;4360149;32;43238;-76
2021/10/22 01:52:00;;;;;;;;;;;9.90;91.40;;;;;;4360168;32;42366;-76
2021/10/22 01:54:27;;;;;;;;;;;9.90;91.40;;;;;;4359780;32;42102;-76
2021/10/22 01:56:55;;;;;;;;;;;9.80;91.40;;;;;;4359885;32;44581;-76
2021/10/22 01:59:22;;;;;;;;;;;9.80;91.40;;;;;;4360957;32;42839;-76
2021/10/22 02:01:49;;;;;;;;;;;9.80;91.40;;;;;;4361357;32;42825;-77
2021/10/22 02:04:16;;;;;;;;;;;9.70;91.40;;;;;;4361330;32;45738;-76
2021/10/22 02:06:44;;;;;;;;;;;9.70;91.40;;;;;;4359852;32;43734;-76
2021/10/22 02:09:11;;;;;;;;;;;9.70;91.40;;;;;;4361390;32;45823;-76
2021/10/22 02:11:38;;;;;;;;;;;9.70;91.40;;;;;;4360390;32;45061;-76
2021/10/22 02:14:05;;;;;;;;;;;9.70;91.50;;;;;;4359789;32;42673;-76
2021/10/22 02:16:33;;;;;;;;;;;9.60;91.50;;;;;;4360693;32;43331;-77
2021/10/22 02:19:00;;;;;;;;;;;9.60;91.40;;;;;;4359548;32;42920;-76
2021/10/22 02:21:27;;;;;;;;;;;9.60;91.50;;;;;;4359753;32;42358;-76
2021/10/22 02:23:54;;;;;;;;;;;9.60;91.50;;;;;;4359477;32;43462;-76
2021/10/22 02:26:21;;;;;;;;;;;9.60;91.50;;;;;;4359449;32;45552;-76
2021/10/22 02:28:48;;;;;;;;;;;9.60;91.50;;;;;;4359789;32;42096;-76
2021/10/22 02:31:16;;;;;;;;;;;9.60;91.60;;;;;;4360509;32;42176;-76
2021/10/22 02:33:43;;;;;;;;;;;9.50;91.50;;;;;;4359498;32;42950;-76
2021/10/22 02:36:10;;;;;;;;;;;9.50;91.60;;;;;;4360778;32;43869;-76
2021/10/22 02:38:37;;;;;;;;;;;9.50;91.60;;;;;;4360807;32;46062;-76
2021/10/22 02:41:04;;;;;;;;;;;9.50;91.60;;;;;;4359698;32;43542;-76
2021/10/22 02:43:31;;;;;;;;;;;9.40;91.60;;;;;;4360343;32;43813;-76
2021/10/22 02:46:00;;;;;;;;;;;9.40;91.70;;;;;;4360363;32;43033;-76
2021/10/22 02:48:27;;;;;;;;;;;9.40;91.70;;;;;;4359842;32;43791;-76
2021/10/22 02:50:55;;;;;;;;;;;9.40;91.60;;;;;;4360827;32;46006;-76
2021/10/22 02:53:22;;;;;;;;;;;9.40;91.60;;;;;;4359574;32;42515;-76
2021/10/22 02:55:49;;;;;;;;;;;9.40;91.60;;;;;;4362281;32;43021;-75
2021/10/22 02:58:16;;;;;;;;;;;9.40;91.60;;;;;;4361632;32;43290;-76
2021/10/22 03:00:43;;;;;;;;;;;9.40;91.60;;;;;;4375167;32;44961;-75
2021/10/22 03:03:10;;;;;;;;;;;9.40;91.60;;;;;;4362153;32;43130;-75
2021/10/22 03:05:38;;;;;;;;;;;9.40;91.50;;;;;;4375500;32;43025;-76
2021/10/22 03:08:05;;;;;;;;;;;9.40;91.50;;;;;;4374985;32;42462;-76
2021/10/22 03:10:32;;;;;;;;;;;9.40;91.50;;;;;;4361892;32;43659;-76
2021/10/22 03:13:01;;;;;;;;;;;9.30;91.50;;;;;;4374844;32;43656;-76
2021/10/22 03:15:28;;;;;;;;;;;9.30;91.50;;;;;;4361412;32;43684;-75
2021/10/22 03:17:56;;;;;;;;;;;9.30;91.40;;;;;;4375414;32;44866;-76
2021/10/22 03:20:23;;;;;;;;;;;9.30;91.40;;;;;;4361612;32;43731;-76
2021/10/22 03:22:50;;;;;;;;;;;9.30;91.50;;;;;;4374985;32;45216;-76
2021/10/22 03:25:17;;;;;;;;;;;9.30;91.50;;;;;;4374813;32;41898;-75
2021/10/22 03:27:44;;;;;;;;;;;9.20;91.40;;;;;;4361729;32;42104;-76
2021/10/22 03:30:15;;;;;;;;;;;9.30;91.50;;;;;;4361201;32;45454;-75
2021/10/22 03:32:42;;;;;;;;;;;9.20;91.40;;;;;;4361643;32;43904;-76
2021/10/22 03:35:09;;;;;;;;;;;9.20;91.50;;;;;;4374221;32;43223;-75
2021/10/22 03:37:36;;;;;;;;;;;9.20;91.40;;;;;;4375153;32;43882;-75
2021/10/22 03:40:04;;;;;;;;;;;9.20;91.50;;;;;;4361510;32;42848;-75
2021/10/22 03:42:31;;;;;;;;;;;9.20;91.50;;;;;;4361264;32;43856;-76
2021/10/22 03:44:58;;;;;;;;;;;9.10;91.50;;;;;;4374728;32;43695;-75
2021/10/22 03:47:25;;;;;;;;;;;9.10;91.50;;;;;;4374834;32;43812;-75
2021/10/22 03:49:54;;;;;;;;;;;9.10;91.40;;;;;;4374942;32;43482;-75
2021/10/22 03:52:21;;;;;;;;;;;9.10;91.40;;;;;;4361153;32;43034;-75
2021/10/22 03:54:48;;;;;;;;;;;9.10;91.40;;;;;;4374515;32;44512;-75
2021/10/22 03:57:15;;;;;;;;;;;9.10;91.40;;;;;;4361022;32;42930;-75
2021/10/22 03:59:42;;;;;;;;;;;9.10;91.40;;;;;;4361461;32;44501;-74
2021/10/22 04:02:10;;;;;;;;;;;9.10;91.40;;;;;;4361349;32;42989;-75
2021/10/22 04:04:39;;;;;;;;;;;9.10;91.40;;;;;;4361365;32;43849;-75
2021/10/22 04:07:07;;;;;;;;;;;9.10;91.30;;;;;;4374852;32;44776;-75
2021/10/22 04:09:34;;;;;;;;;;;9.10;91.30;;;;;;4374843;32;43762;-75
2021/10/22 04:12:01;;;;;;;;;;;9.00;91.20;;;;;;4374618;32;44165;-75
2021/10/22 04:14:29;;;;;;;;;;;9.10;91.30;;;;;;4361183;32;42852;-75
2021/10/22 04:16:56;;;;;;;;;;;9.00;91.20;;;;;;4374851;32;43030;-75
2021/10/22 04:19:24;;;;;;;;;;;9.00;91.20;;;;;;4374744;32;45747;-75
2021/10/22 04:21:52;;;;;;;;;;;9.00;91.20;;;;;;4361365;32;44144;-75
2021/10/22 04:24:19;;;;;;;;;;;9.00;91.30;;;;;;4360997;32;42363;-75
2021/10/22 04:26:46;;;;;;;;;;;8.90;91.30;;;;;;4361023;32;45729;-75
2021/10/22 04:29:13;;;;;;;;;;;8.90;91.40;;;;;;4374488;32;43943;-75
2021/10/22 04:31:40;;;;;;;;;;;8.90;91.40;;;;;;4360858;32;42524;-75
2021/10/22 04:34:08;;;;;;;;;;;8.90;91.40;;;;;;4361298;32;42876;-75
2021/10/22 04:36:36;;;;;;;;;;;8.80;91.40;;;;;;4374846;32;43003;-75
2021/10/22 04:41:50;;;;;;;;;;;8.80;91.30;;;;;;4374753;32;43148;-75
2021/10/22 04:44:17;;;;;;;;;;;8.80;91.30;;;;;;4360727;32;43608;-75
2021/10/22 04:46:44;;;;;;;;;;;8.80;91.30;;;;;;4362532;32;44908;-75
2021/10/22 04:49:11;;;;;;;;;;;8.80;91.30;;;;;;4363484;32;42024;-75
2021/10/22 04:51:38;;;;;;;;;;;8.80;91.30;;;;;;4376931;32;45963;-75
2021/10/22 04:54:05;;;;;;;;;;;8.80;91.20;;;;;;4376856;32;43015;-75
2021/10/22 04:56:33;;;;;;;;;;;8.80;91.20;;;;;;4363479;32;42624;-75
2021/10/22 04:59:00;;;;;;;;;;;8.80;91.30;;;;;;4363796;32;42840;-75
2021/10/22 05:01:27;;;;;;;;;;;8.80;91.30;;;;;;4377192;32;42499;-75
2021/10/22 05:03:55;;;;;;;;;;;8.80;91.30;;;;;;4376678;32;43129;-74
2021/10/22 05:06:22;;;;;;;;;;;8.70;91.20;;;;;;4363409;32;42426;-75
2021/10/22 05:08:52;;;;;;;;;;;8.80;91.20;;;;;;4363187;32;44285;-75
2021/10/22 05:11:19;;;;;;;;;;;8.70;91.20;;;;;;4377107;32;43741;-75
2021/10/22 05:13:46;;;;;;;;;;;8.70;91.20;;;;;;4363152;32;43659;-75
2021/10/22 05:16:13;;;;;;;;;;;8.70;91.20;;;;;;4363109;32;43686;-75
2021/10/22 05:18:41;;;;;;;;;;;8.70;91.20;;;;;;4363609;32;43043;-75
2021/10/22 05:21:08;;;;;;;;;;;8.70;91.20;;;;;;4362896;32;44201;-75
2021/10/22 05:23:37;;;;;;;;;;;8.70;91.20;;;;;;4363733;32;43892;-75
2021/10/22 05:26:05;;;;;;;;;;;8.60;91.20;;;;;;4363216;32;42526;-75
2021/10/22 05:28:32;;;;;;;;;;;8.60;91.20;;;;;;4376412;32;43179;-75
2021/10/22 05:31:00;;;;;;;;;;;8.60;91.20;;;;;;4362849;32;44579;-75
2021/10/22 05:33:27;;;;;;;;;;;8.60;91.20;;;;;;4363416;32;44847;-75
2021/10/22 05:35:54;;;;;;;;;;;8.60;91.20;;;;;;4362758;32;44285;-74
2021/10/22 05:38:21;;;;;;;;;;;8.60;91.20;;;;;;4376213;32;45028;-75
2021/10/22 05:40:48;;;;;;;;;;;8.60;91.30;;;;;;4362636;32;44862;-75
2021/10/22 05:43:15;;;;;;;;;;;8.60;91.30;;;;;;4363164;32;45303;-75
2021/10/22 05:45:43;;;;;;;;;;;8.60;91.30;;;;;;4362779;32;42132;-75
2021/10/22 05:48:10;;;;;;;;;;;8.60;91.30;;;;;;4363155;32;45098;-75
2021/10/22 05:50:39;;;;;;;;;;;8.50;91.30;;;;;;4362783;32;44276;-75
2021/10/22 05:53:07;;;;;;;;;;;8.60;91.30;;;;;;4376559;32;44104;-74
2021/10/22 05:55:34;;;;;;;;;;;8.60;91.20;;;;;;4362836;32;42499;-75
2021/10/22 05:58:01;;;;;;;;;;;8.60;91.20;;;;;;4362555;32;43538;-75
2021/10/22 06:00:28;;;;;;;;;;;8.60;91.20;;;;;;4362965;32;45711;-75
2021/10/22 06:02:56;;;;;;;;;;;8.60;91.20;;;;;;4362940;32;44887;-75
2021/10/22 06:05:24;;;;;;;;;;;8.50;91.20;;;;;;4375838;32;42659;-75
2021/10/22 06:07:51;;;;;;;;;;;8.50;91.20;;;;;;4362902;32;44216;-75
2021/10/22 06:10:18;;;;;;;;;;;8.50;91.20;;;;;;4362398;32;45230;-75
2021/10/22 06:12:45;;;;;;;;;;;8.50;91.30;;;;;;4362297;32;45014;-75
2021/10/22 06:15:12;;;;;;;;;;;8.50;91.30;;;;;;4362310;32;43523;-75
2021/10/22 06:17:39;;;;;;;;;;;8.40;91.30;;;;;;4376130;32;45011;-75
2021/10/22 06:20:13;;;;;;;;;;;8.40;91.30;;;;;;4376092;32;45007;-75
2021/10/22 06:23:52;;;;;;;;;;;8.40;91.30;;;;;;4376318;32;43428;-74
2021/10/22 06:25:27;;;;;;;;;;;8.40;91.30;;;;;;4375651;32;42549;-75
2021/10/22 06:27:54;;;;;;;;;;;8.40;91.30;;;;;;4362093;32;43218;-75
2021/10/22 06:30:21;;;;;;;;;;;8.40;91.40;;;;;;4362204;32;44305;-74
2021/10/22 06:32:48;;;;;;;;;;;8.40;91.40;;;;;;4375555;32;44355;-75
2021/10/22 06:35:15;;;;;;;;;;;8.30;91.30;;;;;;4375721;32;44360;-75
2021/10/22 06:37:42;;;;;;;;;;;8.30;91.30;;;;;;4362411;32;44743;-75
2021/10/22 06:40:10;;;;;;;;;;;8.30;91.40;;;;;;4362311;32;43867;-74
2021/10/22 06:42:38;;;;;;;;;;;8.30;91.30;;;;;;4375847;32;43988;-74
2021/10/22 06:45:05;;;;;;;;;;;8.30;91.40;;;;;;4375822;32;43747;-74
2021/10/22 06:47:32;;;;;;;;;;;8.30;91.40;;;;;;4375491;32;45551;-75
2021/10/22 06:49:59;;;;;;;;;;;8.30;91.40;;;;;;4362126;32;43681;-75
2021/10/22 06:52:26;;;;;;;;;;;8.30;91.40;;;;;;4375132;32;42578;-75
2021/10/22 06:54:53;;;;;;;;;;;8.20;91.40;;;;;;4375054;32;42547;-74
2021/10/22 06:57:24;;;;;;;;;;;8.30;91.50;;;;;;4361843;32;44576;-74
2021/10/22 06:59:51;;;;;;;;;;;8.30;91.50;;;;;;4375369;32;43467;-75
2021/10/22 07:02:18;;;;;;;;;;;8.20;91.40;;;;;;4362178;32;43029;-75
2021/10/22 07:04:50;;;;;;;;;;;8.20;91.50;;;;;;4362044;32;45157;-74
2021/10/22 07:07:19;;;;;;;;;;;8.20;91.50;;;;;;4362024;32;44806;-75
2021/10/22 07:09:50;;;;;;;;;;;8.20;91.50;;;;;;4374391;32;42969;-74
2021/10/22 07:12:21;;;;;;;;;;;8.20;91.60;;;;;;4375634;32;44617;-75
2021/10/22 07:14:49;;;;;;;;;;;8.20;91.60;;;;;;4374909;32;43843;-74
2021/10/22 07:17:24;;;;;;;;;;;8.20;91.50;;;;;;4361904;32;42910;-74
2021/10/22 07:19:52;;;;;;;;;;;8.20;91.60;;;;;;4361770;32;44145;-74
2021/10/22 07:22:23;;;;;;;;;;;8.20;91.60;;;;;;4361345;32;44531;-75
2021/10/22 07:24:50;;;;;;;;;;;8.20;91.60;;;;;;4362001;32;44880;-75
2021/10/22 07:27:17;;;;;;;;;;;8.30;91.60;;;;;;4362010;32;43917;-75
2021/10/22 07:29:44;;;;;;;;;;;8.20;91.60;;;;;;4375194;32;44842;-75
2021/10/22 07:32:11;;;;;;;;;;;8.20;91.60;;;;;;4374628;32;43217;-75
2021/10/22 07:34:45;;;;;;;;;;;8.20;91.60;;;;;;4362704;32;43526;-75
2021/10/22 07:37:12;;;;;;;;;;;8.20;91.70;;;;;;4361891;32;43850;-75
2021/10/22 07:39:39;;;;;;;;;;;8.20;91.70;;;;;;4361249;32;43745;-74
2021/10/22 07:42:08;;;;;;;;;;;8.20;91.70;;;;;;4361725;32;44082;-74
2021/10/22 07:44:51;;;;;;;;;;;8.30;91.70;;;;;;4363167;32;45716;-75
2021/10/22 07:47:19;;;;;;;;;;;8.30;91.70;;;;;;4374742;32;43048;-74
2021/10/22 07:49:49;;;;;;;;;;;8.20;91.80;;;;;;4361670;32;43477;-74
2021/10/22 07:52:17;;;;;;;;;;;8.30;91.80;;;;;;4361584;32;44495;-75
2021/10/22 07:54:45;;;;;;;;;;;8.30;91.80;;;;;;4361149;32;43772;-76
2021/10/22 07:57:13;;;;;;;;;;;8.30;91.80;;;;;;4361025;32;44346;-74
2021/10/22 07:59:40;;;;;;;;;;;8.30;91.90;;;;;;4374403;32;44201;-75
2021/10/22 08:02:15;;;;;;;;;;;8.30;92.00;;;;;;4374878;32;44250;-74
2021/10/22 08:04:44;;;;;;;;;;;8.30;91.90;;;;;;4361717;32;44192;-74
2021/10/22 08:07:16;;;;;;;;;;;8.30;92.00;;;;;;4361111;32;42907;-75
2021/10/22 08:09:44;;;;;;;;;;;8.30;92.00;;;;;;4361548;32;44781;-75
2021/10/22 08:12:14;;;;;;;;;;;8.30;92.00;;;;;;4361590;32;45699;-75
2021/10/22 08:14:42;;;;;;;;;;;8.30;92.00;;;;;;4361579;32;44259;-74
2021/10/22 08:17:09;;;;;;;;;;;8.40;92.10;;;;;;4361160;32;44332;-74
2021/10/22 08:19:36;;;;;;;;;;;8.40;92.10;;;;;;4374448;32;42382;-75
2021/10/22 08:24:49;;;;;;;;;;;8.40;92.10;;;;;;4377612;32;43530;-75
2021/10/22 08:27:16;;;;;;;;;;;8.50;92.20;;;;;;4377461;32;44832;-74
2021/10/22 08:29:43;;;;;;;;;;;8.50;92.30;;;;;;4377399;32;45168;-75
2021/10/22 08:32:10;;;;;;;;;;;8.40;92.20;;;;;;4363766;32;44105;-75
2021/10/22 08:34:38;;;;;;;;;;;8.50;92.20;;;;;;4363775;32;44193;-76
2021/10/22 08:37:08;;;;;;;;;;;8.50;92.20;;;;;;4364084;32;44924;-75
2021/10/22 08:39:38;;;;;;;;;;;8.50;92.20;;;;;;4364316;32;44208;-76
2021/10/22 08:42:06;;;;;;;;;;;8.60;92.20;;;;;;4364081;32;43751;-75
2021/10/22 08:44:34;;;;;;;;;;;8.60;92.20;;;;;;4363863;32;45564;-75
2021/10/22 08:47:01;;;;;;;;;;;8.60;92.20;;;;;;4363833;32;44509;-75
2021/10/22 08:49:31;;;;;;;;;;;8.60;92.30;;;;;;4363539;32;43946;-74
2021/10/22 08:51:59;;;;;;;;;;;8.70;92.40;;;;;;4363847;32;44800;-75
2021/10/22 08:54:26;;;;;;;;;;;8.70;92.30;;;;;;4363418;32;43875;-74
2021/10/22 08:57:08;;;;;;;;;;;8.70;92.30;;;;;;4365589;32;45776;-75
2021/10/22 08:59:35;;;;;;;;;;;8.70;92.30;;;;;;4363597;32;46253;-75
2021/10/22 09:02:14;;;;;;;;;;;8.70;92.30;;;;;;4363708;32;43870;-76
2021/10/22 09:04:43;;;;;;;;;;;8.80;92.30;;;;;;4363956;32;45810;-74
2021/10/22 09:07:15;;;;;;;;;;;8.80;92.30;;;;;;4363802;32;45798;-75
2021/10/22 09:09:43;;;;;;;;;;;8.80;92.30;;;;;;4377338;32;45111;-75
2021/10/22 09:12:11;;;;;;;;;;;8.90;92.30;;;;;;4377184;32;45140;-74
2021/10/22 09:14:56;;;;;;;;;;;8.90;92.30;;;;;;4363081;32;44276;-75
2021/10/22 09:17:39;;;;;;;;;;;8.90;92.40;;;;;;4363625;32;44989;-74
2021/10/22 09:20:08;;;;;;;;;;;9.00;92.40;;;;;;4363095;32;43741;-74
2021/10/22 09:22:35;;;;;;;;;;;9.00;92.30;;;;;;4363328;32;46117;-75
2021/10/22 09:25:11;;;;;;;;;;;9.10;92.50;;;;;;4376975;32;45712;-75
2021/10/22 09:27:42;;;;;;;;;;;9.10;92.30;;;;;;4363606;32;43274;-74
2021/10/22 09:30:31;;;;;;;;;;;9.10;92.40;;;;;;4362903;32;45776;-76
2021/10/22 09:33:01;;;;;;;;;;;9.10;92.40;;;;;;4375026;32;44243;-75
2021/10/22 09:35:37;;;;;;;;;;;9.20;92.40;;;;;;4363153;32;44656;-75
2021/10/22 09:38:05;;;;;;;;;;;9.20;92.40;;;;;;4363540;32;44517;-75
2021/10/22 09:40:33;;;;;;;;;;;9.20;92.40;;;;;;4362899;32;43960;-75
2021/10/22 09:43:09;;;;;;;;;;;9.30;92.40;;;;;;4363198;32;44294;-75
2021/10/22 09:45:36;;;;;;;;;;;9.30;92.40;;;;;;4376254;32;42107;-75
2021/10/22 09:48:24;;;;;;;;;;;9.30;92.40;;;;;;4363132;32;43977;-75
2021/10/22 09:50:52;;;;;;;;;;;9.40;92.60;;;;;;4362916;32;42947;-76
2021/10/22 09:53:23;;;;;;;;;;;9.40;92.50;;;;;;4363190;32;44329;-75
2021/10/22 09:56:01;;;;;;;;;;;9.40;92.40;;;;;;4363138;32;44767;-74
2021/10/22 09:58:29;;;;;;;;;;;9.50;92.50;;;;;;4363145;32;43478;-75
2021/10/22 10:01:06;;;;;;;;;;;9.50;92.50;;;;;;4363029;32;44878;-75
2021/10/22 10:03:36;;;;;;;;;;;9.60;92.50;;;;;;4363071;32;43322;-75
2021/10/22 10:06:07;;;;;;;;;;;9.60;92.50;;;;;;4363036;32;43158;-75
2021/10/22 10:08:35;;;;;;;;;;;9.70;92.50;;;;;;4376523;32;43730;-76
2021/10/22 10:11:03;;;;;;;;;;;9.70;92.50;;;;;;4362420;32;43804;-76
2021/10/22 10:13:33;;;;;;;;;;;9.80;92.80;;;;;;4362859;32;44855;-76
2021/10/22 10:16:01;;;;;;;;;;;9.80;92.50;;;;;;4362748;32;45722;-75
2021/10/22 10:18:37;;;;;;;;;;;9.90;92.70;;;;;;4361529;32;44819;-76
2021/10/22 10:21:12;;;;;;;;;;;10.00;92.50;;;;;;4362693;32;45033;-75
2021/10/22 10:23:44;;;;;;;;;;;10.00;92.60;;;;;;4362209;32;43353;-76
2021/10/22 10:26:21;;;;;;;;;;;10.00;92.40;;;;;;4362091;32;44201;-76
2021/10/22 10:28:50;;;;;;;;;;;10.10;92.50;;;;;;4362773;32;44239;-77
2021/10/22 10:31:30;;;;;;;;;;;10.10;92.40;;;;;;4362344;32;44775;-76
2021/10/22 10:33:58;;;;;;;;;;;10.10;92.50;;;;;;4362592;32;45755;-76
2021/10/22 10:36:44;;;;;;;;;;;10.20;92.50;;;;;;4362776;32;45177;-75
2021/10/22 10:39:12;;;;;;;;;;;10.30;92.50;;;;;;4374823;32;44531;-76
2021/10/22 10:41:40;;;;;;;;;;;10.30;92.40;;;;;;4361782;32;43122;-75
2021/10/22 10:44:30;;;;;;;;;;;10.40;92.50;;;;;;4361764;32;43959;-76
2021/10/22 10:46:57;;;;;;;;;;;10.40;92.40;;;;;;4369236;32;44854;-75
2021/10/22 10:49:43;;;;;;;;;;;10.50;92.40;;;;;;4362388;32;44382;-76
2021/10/22 10:52:31;;;;;;;;;;;10.50;92.30;;;;;;4374615;32;45979;-76
2021/10/22 10:55:24;;;;;;;;;;;10.60;92.40;;;;;;4374050;32;42068;-76
2021/10/22 10:58:07;;;;;;;;;;;10.60;92.30;;;;;;4362286;32;45226;-77
2021/10/22 11:00:39;;;;;;;;;;;10.60;92.30;;;;;;4362344;32;43499;-76
2021/10/22 11:03:11;;;;;;;;;;;10.60;92.20;;;;;;4362721;32;20133;-77
2021/10/22 11:05:42;;;;;;;;;;;10.70;92.30;;;;;;4362239;32;43634;-77
2021/10/22 11:08:13;;;;;;;;;;;10.70;92.30;;;;;;4362003;32;45784;-76
2021/10/22 11:11:09;;;;;;;;;;;10.70;92.30;;;;;;4362111;32;45843;-76
2021/10/22 11:13:45;;;;;;;;;;;10.70;92.20;;;;;;4374295;32;45637;-77
2021/10/22 11:18:49;;;;;;;;;;;10.70;92.20;;;;;;4374815;32;45077;-76
2021/10/22 11:21:16;;;;;;;;;;;10.70;92.30;;;;;;4361338;32;45036;-76
2021/10/22 11:23:43;;;;;;;;;;;10.80;92.40;;;;;;4361752;32;43585;-76
2021/10/22 11:26:19;;;;;;;;;;;10.80;92.30;;;;;;4361613;32;44674;-76
2021/10/22 11:28:47;;;;;;;;;;;10.80;92.30;;;;;;4361985;32;45785;-77
2021/10/22 11:31:15;;;;;;;;;;;10.90;92.30;;;;;;4361999;32;44237;-77
2021/10/22 11:33:45;;;;;;;;;;;10.90;92.30;;;;;;4361991;32;44332;-77
2021/10/22 11:36:18;;;;;;;;;;;10.90;92.30;;;;;;4361781;32;43030;-76
2021/10/22 11:38:45;;;;;;;;;;;10.90;92.20;;;;;;4361747;32;45778;-77
2021/10/22 11:41:15;;;;;;;;;;;11.00;92.30;;;;;;4361113;32;45803;-77
2021/10/22 11:44:01;;;;;;;;;;;11.00;92.60;;;;;;4375047;32;44991;-77
2021/10/22 11:46:40;;;;;;;;;;;11.10;92.30;;;;;;4374590;32;43724;-77
2021/10/22 11:49:08;;;;;;;;;;;11.10;92.20;;;;;;4361796;32;43145;-76
2021/10/22 11:51:35;;;;;;;;;;;11.20;92.20;;;;;;4374457;32;45715;-77
2021/10/22 11:54:03;;;;;;;;;;;11.20;92.10;;;;;;4360927;32;43927;-77
2021/10/22 11:56:34;;;;;;;;;;;11.20;92.20;;;;;;4361179;32;42830;-76
2021/10/22 11:59:07;;;;;;;;;;;11.20;92.10;;;;;;4361150;32;43256;-77
2021/10/22 12:01:38;;;;;;;;;;;11.20;92.10;;;;;;4361646;32;44172;-76
2021/10/22 12:04:11;;;;;;;;;;;11.20;92.10;;;;;;4362584;32;20039;-76
2021/10/22 12:06:38;;;;;;;;;;;11.20;92.10;;;;;;4361551;32;43215;-76
2021/10/22 12:09:05;;;;;;;;;;;11.20;92.00;;;;;;4374458;32;43261;-76
2021/10/22 12:11:32;;;;;;;;;;;11.20;92.00;;;;;;4361594;32;45151;-77
2021/10/22 12:13:59;;;;;;;;;;;11.20;92.00;;;;;;4361092;32;43690;-77
2021/10/22 12:16:29;;;;;;;;;;;11.20;91.90;;;;;;4361407;32;45225;-77
2021/10/22 12:18:58;;;;;;;;;;;11.10;92.00;;;;;;4361520;32;44809;-77
2021/10/22 12:21:27;;;;;;;;;;;11.10;92.00;;;;;;4360905;32;42176;-77
2021/10/22 12:23:55;;;;;;;;;;;11.10;92.00;;;;;;4374365;32;43012;-76
2021/10/22 12:26:23;;;;;;;;;;;11.10;92.10;;;;;;4361447;32;45769;-77
2021/10/22 12:29:00;;;;;;;;;;;11.10;92.00;;;;;;4361314;32;44882;-76
2021/10/22 12:31:31;;;;;;;;;;;11.10;92.00;;;;;;4360847;32;43573;-77
2021/10/22 12:34:02;;;;;;;;;;;11.10;92.10;;;;;;4360964;32;43467;-77
2021/10/22 12:36:31;;;;;;;;;;;11.10;92.10;;;;;;4361063;32;43479;-77
2021/10/22 12:38:59;;;;;;;;;;;11.10;92.20;;;;;;4361264;32;45162;-77
2021/10/22 12:41:27;;;;;;;;;;;11.20;92.20;;;;;;4361398;32;44233;-77
2021/10/22 12:44:10;;;;;;;;;;;11.20;92.20;;;;;;4374607;32;46073;-77
2021/10/22 12:46:53;;;;;;;;;;;11.30;92.10;;;;;;4361267;32;42970;-77
2021/10/22 12:49:24;;;;;;;;;;;11.30;92.20;;;;;;4361124;32;45854;-76
2021/10/22 12:51:56;;;;;;;;;;;11.30;92.10;;;;;;4374145;32;43646;-77
2021/10/22 12:54:23;;;;;;;;;;;11.30;92.10;;;;;;4360485;32;44319;-77
2021/10/22 12:56:58;;;;;;;;;;;11.30;92.10;;;;;;4360686;32;45369;-77
2021/10/22 12:59:31;;;;;;;;;;;11.40;92.10;;;;;;4361360;32;45873;-77
2021/10/22 13:02:00;;;;;;;;;;;11.40;92.10;;;;;;4361201;32;45199;-77
2021/10/22 13:04:28;;;;;;;;;;;11.40;92.00;;;;;;4361073;32;43540;-77
2021/10/22 13:10:18;;;;;;;;;;;11.40;92.10;;;;;;4377163;32;44779;-77
2021/10/22 13:13:04;;;;;;;;;;;11.40;92.10;;;;;;4375230;32;42926;-77
2021/10/22 13:20:54;;;;;;;;;;;11.40;92.10;;;;;;4377069;32;44536;-77
2021/10/22 13:23:21;;;;;;;;;;;11.50;92.10;;;;;;4363383;32;44955;-76
2021/10/22 13:25:49;;;;;;;;;;;11.50;92.10;;;;;;4363297;32;43781;-77
2021/10/22 13:28:22;;;;;;;;;;;11.50;92.10;;;;;;4363046;32;44131;-77
2021/10/22 13:33:31;;;;;;;;;;;11.50;92.50;;;;;;4377030;32;45808;-77
2021/10/22 13:36:10;;;;;;;;;;;11.50;92.10;;;;;;4362842;32;43483;-77
2021/10/22 13:38:40;;;;;;;;;;;11.50;92.30;;;;;;4363600;32;21359;-76
2021/10/22 13:41:10;;;;;;;;;;;11.50;92.10;;;;;;4363738;32;43160;-77
2021/10/22 13:43:37;;;;;;;;;;;11.50;92.10;;;;;;4363300;32;43929;-76
2021/10/22 13:46:04;;;;;;;;;;;11.50;92.10;;;;;;4362832;32;45003;-77
2021/10/22 13:48:33;;;;;;;;;;;11.60;92.10;;;;;;4363203;32;42164;-77
2021/10/22 13:51:00;;;;;;;;;;;11.60;92.00;;;;;;4362849;32;44956;-77
2021/10/22 13:53:28;;;;;;;;;;;11.60;92.10;;;;;;4363047;32;44143;-77
2021/10/22 13:55:59;;;;;;;;;;;11.60;92.00;;;;;;4362810;32;42572;-77
2021/10/22 13:58:26;;;;;;;;;;;11.60;91.80;;;;;;4362553;32;45791;-77
2021/10/22 14:00:59;;;;;;;;;;;11.60;92.00;;;;;;4363020;32;44577;-77
2021/10/22 14:03:29;;;;;;;;;;;11.60;91.90;;;;;;4363056;32;43108;-77
2021/10/22 14:05:57;;;;;;;;;;;11.60;91.90;;;;;;4376497;32;44200;-77
2021/10/22 14:08:33;;;;;;;;;;;11.70;91.90;;;;;;4362787;32;43686;-77
2021/10/22 14:11:07;;;;;;;;;;;11.60;91.90;;;;;;4362940;32;44766;-76
2021/10/22 14:29:23;;;;;;;;;;;11.70;91.70;;;;;;4376089;32;44301;-77
2021/10/22 14:31:56;;;;;;;;;;;11.80;91.70;;;;;;4362485;32;45019;-77
2021/10/22 14:34:23;;;;;;;;;;;11.80;91.80;;;;;;4375955;32;45773;-77
2021/10/22 14:36:50;;;;;;;;;;;11.80;91.70;;;;;;4362036;32;45799;-77
2021/10/22 14:39:23;;;;;;;;;;;11.80;91.70;;;;;;4362875;32;20004;-76
2021/10/22 14:41:51;;;;;;;;;;;11.80;91.70;;;;;;4362630;32;43478;-77
2021/10/22 14:44:28;;;;;;;;;;;11.80;91.80;;;;;;4362435;32;44264;-77
2021/10/22 14:47:09;;;;;;;;;;;11.80;91.80;;;;;;4362423;32;45031;-76
2021/10/22 14:49:43;;;;;;;;;;;11.80;91.80;;;;;;4362841;32;44188;-77
2021/10/22 14:54:41;;;;;;;;;;;11.80;91.80;;;;;;4375310;32;44149;-77
2021/10/22 14:57:08;;;;;;;;;;;11.90;91.80;;;;;;4362081;32;42091;-77
2021/10/22 14:59:38;;;;;;;;;;;11.80;91.70;;;;;;4362405;32;43959;-77
2021/10/22 15:02:10;;;;;;;;;;;11.80;91.60;;;;;;4362143;32;45455;-76
2021/10/22 15:04:37;;;;;;;;;;;11.90;91.60;;;;;;4362207;32;45151;-76
2021/10/22 15:07:04;;;;;;;;;;;11.80;91.60;;;;;;4375016;32;44977;-77
2021/10/22 15:09:32;;;;;;;;;;;11.90;91.70;;;;;;4376530;32;19993;-77
2021/10/22 15:12:00;;;;;;;;;;;11.80;91.70;;;;;;4361933;32;43918;-77
2021/10/22 15:14:27;;;;;;;;;;;11.90;91.70;;;;;;4375395;32;44323;-77